CheckWX is a tool to help pilots better visualize weather data.  It is not intended as a substitute for an official pre-flight weather briefing.

21:01:31 UTC

KSXU METAR
Santa Rosa Route 66 Airport
Santa Rosa, New Mexico, USA
Current

27 mins ago

KSXU 232035Z AUTO 02005KT 10SM OVC015 10/08 A3014 RMK AO2 T01030076
Observed
Apr-23 @ 20:35 UTC
Wind
  • 020° at 5 KTS
Visibility
10 SM
Flight Rules
MVFR
Cloud Levels
  • Overcast at 1,500' AGL
Temperature
10°C / 50°F
Dewpoint
C / 46°F
Humidity
88%
Altimeter
30.14" Hg
Pressure
1020.62 hPa
Previous

47 mins ago

KSXU 232015Z AUTO 05005KT 10SM OVC015 11/08 A3014 RMK AO2 T01070075
Observed
Apr-23 @ 20:15 UTC
Wind
  • 050° at 5 KTS
Visibility
10 SM
Flight Rules
MVFR
Cloud Levels
  • Overcast at 1,500' AGL
Temperature
11°C / 52°F
Dewpoint
C / 46°F
Humidity
82%
Altimeter
30.14" Hg
Pressure
1020.62 hPa
Previous

1 hour ago

KSXU 231955Z AUTO 06008KT 10SM OVC015 11/08 A3014 RMK AO2 LTG DSNT SW AND W T01060075
Observed
Apr-23 @ 19:55 UTC
Wind
  • 060° at 8 KTS
Visibility
10 SM
Flight Rules
MVFR
Cloud Levels
  • Overcast at 1,500' AGL
Temperature
11°C / 52°F
Dewpoint
C / 46°F
Humidity
82%
Altimeter
30.14" Hg
Pressure
1020.62 hPa